西安 の空港の天気 - METARとTAF

西安咸陽国際空港 ( ZLXY / XIY ) - 中国 陝西省西安市
飛行場実況気象(Metar)
観測時間10/26 02:00 CST (10/25 18:00 UTC)
風向・風速不定 1m/s
視程3000m
天気現象もや
なし
気温14℃
湿度82%
気圧1021hPa
METARZLXY 251800Z VRB01MPS 3000 BR NSC 14/11 Q1021 NOSIG
過去の天気等 Google飛行場航空写真 Wunderground天気予報

過去48時間のMETAR

飛行場予報(TAF)
発表時間: 10/25 23:04 CST (10/25 15:04 UTC)
予報対象時間: 26日2時 CST ~ 27日2時 CST
風向・風速西南西 3m/s
視程3000m
天気現象煙霧
なし
TAF ZLXY 251504Z 2518/2618 24003MPS 3000 HZ NSC TX21/2607Z TN13/2522Z